Time;durP1;ratioP1;P1;durP2;ratioP2;P2;SDS_P1;SDS_P2;PMS_P1;PMS_P2;Temp;Humidity;BMP_temperature;BMP_pressure;BME280_temperature;BME280_humidity;BME280_pressure;Samples;Min_cycle;Max_cycle;Signal;HPM_P1;HPM_P2
2021/09/24 00:00:19;;;;;;;3.95;1.80;;;19.30;66.30;;;;;;5052567;28;20649;-67
2021/09/24 00:02:45;;;;;;;1.42;1.20;;;19.20;66.30;;;;;;5052589;28;20175;-67
2021/09/24 00:05:10;;;;;;;2.13;1.13;;;19.30;66.30;;;;;;5051086;28;20187;-65
2021/09/24 00:07:36;;;;;;;3.00;1.40;;;19.30;66.40;;;;;;5051739;28;20566;-64
2021/09/24 00:10:01;;;;;;;2.35;1.50;;;19.30;66.40;;;;;;5051913;28;20178;-64
2021/09/24 00:12:27;;;;;;;3.28;1.23;;;19.20;66.40;;;;;;5052980;28;20190;-65
2021/09/24 00:14:52;;;;;;;1.02;1.00;;;19.20;66.40;;;;;;5055476;28;20548;-64
2021/09/24 00:17:18;;;;;;;1.48;1.38;;;19.20;66.30;;;;;;5048532;28;20176;-64
2021/09/24 00:19:44;;;;;;;1.48;1.38;;;19.20;66.40;;;;;;5035974;28;20164;-65
2021/09/24 00:22:09;;;;;;;1.10;1.00;;;19.20;66.40;;;;;;5055244;28;20175;-65
2021/09/24 00:24:35;;;;;;;1.83;1.30;;;19.20;66.40;;;;;;5055613;28;20630;-66
2021/09/24 00:27:00;;;;;;;1.52;1.25;;;19.20;66.40;;;;;;5054268;28;20241;-65
2021/09/24 00:29:26;;;;;;;2.67;1.40;;;19.20;66.40;;;;;;5055572;28;20626;-64
2021/09/24 00:31:51;;;;;;;2.25;1.10;;;19.20;66.50;;;;;;5055312;28;20236;-64
2021/09/24 00:34:17;;;;;;;1.85;1.30;;;19.60;66.70;;;;;;5054761;28;20225;-64
2021/09/24 00:36:42;;;;;;;1.80;1.27;;;19.20;66.50;;;;;;5055522;28;20179;-65
2021/09/24 00:39:08;;;;;;;1.55;1.10;;;19.20;66.60;;;;;;5054282;28;20172;-65
2021/09/24 00:41:33;;;;;;;1.90;1.05;;;19.20;66.50;;;;;;5055355;28;20179;-65
2021/09/24 00:44:01;;;;;;;1.60;1.00;;;19.10;66.60;;;;;;5055155;28;20173;-65
2021/09/24 00:46:27;;;;;;;2.42;1.17;;;19.20;66.50;;;;;;5054300;28;20219;-65
2021/09/24 00:48:52;;;;;;;2.72;1.35;;;19.20;66.60;;;;;;5055083;28;20168;-65
2021/09/24 00:51:18;;;;;;;1.98;1.10;;;19.20;66.50;;;;;;5055091;28;20208;-65
2021/09/24 00:53:43;;;;;;;2.33;1.27;;;19.20;66.60;;;;;;5054346;28;20175;-65
2021/09/24 00:56:09;;;;;;;2.63;1.35;;;19.20;66.60;;;;;;5036830;28;20183;-64
2021/09/24 00:58:34;;;;;;;2.55;1.30;;;19.10;66.60;;;;;;5037369;28;20167;-65
2021/09/24 01:01:00;;;;;;;1.98;1.10;;;19.20;66.60;;;;;;5054057;28;20179;-65
2021/09/24 01:03:25;;;;;;;2.28;1.30;;;19.10;66.60;;;;;;5054768;28;20213;-65
2021/09/24 01:05:51;;;;;;;1.15;1.05;;;19.20;66.60;;;;;;5054360;28;20245;-65
2021/09/24 01:08:17;;;;;;;2.50;1.40;;;19.20;66.70;;;;;;5053944;28;20522;-64
2021/09/24 01:10:42;;;;;;;2.80;1.33;;;19.10;66.60;;;;;;5054667;28;20180;-64
2021/09/24 01:13:08;;;;;;;2.30;1.20;;;19.10;66.60;;;;;;5036757;28;20226;-64
2021/09/24 01:15:33;;;;;;;1.95;1.02;;;19.10;66.60;;;;;;5053766;28;20172;-65
2021/09/24 01:17:59;;;;;;;2.10;1.00;;;19.10;66.60;;;;;;5041771;28;20221;-65
2021/09/24 01:20:24;;;;;;;1.52;1.30;;;19.10;66.60;;;;;;5040858;28;20175;-65
2021/09/24 01:22:51;;;;;;;3.13;1.60;;;19.10;66.60;;;;;;5052999;28;20556;-65
2021/09/24 01:25:17;;;;;;;1.83;1.30;;;19.10;66.60;;;;;;5053894;28;20179;-65
2021/09/24 01:27:42;;;;;;;1.42;1.13;;;19.10;66.60;;;;;;5054485;28;20705;-65
2021/09/24 01:30:08;;;;;;;2.45;1.73;;;19.10;66.60;;;;;;5053363;28;20181;-64
2021/09/24 01:32:34;;;;;;;2.13;1.15;;;19.10;66.60;;;;;;5054495;28;20180;-64
2021/09/24 01:35:00;;;;;;;2.10;1.25;;;19.10;66.70;;;;;;5054197;28;20171;-64
2021/09/24 01:37:26;;;;;;;2.22;1.38;;;19.10;66.60;;;;;;5053446;28;20190;-65
2021/09/24 01:39:52;;;;;;;2.53;1.42;;;19.10;66.60;;;;;;5053908;28;20183;-65
2021/09/24 01:42:21;;;;;;;2.70;1.10;;;19.10;66.60;;;;;;5054049;28;20653;-65
2021/09/24 01:44:46;;;;;;;1.40;1.30;;;19.10;66.70;;;;;;5053540;28;20625;-66
2021/09/24 01:47:12;;;;;;;1.95;1.40;;;19.10;66.70;;;;;;5053907;28;20269;-66
2021/09/24 01:49:37;;;;;;;1.95;1.30;;;19.10;66.70;;;;;;5053461;28;20206;-65
2021/09/24 01:52:03;;;;;;;3.33;1.48;;;19.10;66.70;;;;;;5053725;28;20254;-65
2021/09/24 01:54:29;;;;;;;1.65;1.30;;;19.10;66.70;;;;;;5036119;28;20262;-65
2021/09/24 01:56:54;;;;;;;1.35;1.25;;;19.10;66.60;;;;;;5035206;28;20171;-64
2021/09/24 01:59:20;;;;;;;2.22;1.35;;;19.10;66.70;;;;;;5053724;28;20578;-64
2021/09/24 02:01:45;;;;;;;2.25;1.35;;;19.10;66.70;;;;;;5053714;28;20182;-65
2021/09/24 02:04:11;;;;;;;3.45;1.50;;;19.00;66.60;;;;;;5052602;28;20630;-65
2021/09/24 02:06:36;;;;;;;2.67;1.65;;;19.10;66.70;;;;;;5053742;28;20229;-65
2021/09/24 02:09:02;;;;;;;2.50;1.40;;;19.00;66.60;;;;;;5053593;28;20175;-64
2021/09/24 02:11:27;;;;;;;1.98;1.17;;;19.10;66.70;;;;;;5053149;28;20206;-64
2021/09/24 02:13:53;;;;;;;1.73;1.20;;;19.00;66.50;;;;;;5053344;28;20277;-64
2021/09/24 02:16:19;;;;;;;1.27;1.17;;;19.10;66.70;;;;;;5053663;28;20186;-64
2021/09/24 02:18:44;;;;;;;2.65;1.33;;;19.00;66.60;;;;;;5033991;28;20175;-65
2021/09/24 02:21:10;;;;;;;2.35;1.45;;;19.00;66.60;;;;;;5046113;28;20225;-65
2021/09/24 02:23:36;;;;;;;2.90;1.33;;;19.00;66.60;;;;;;5053531;28;20171;-65
2021/09/24 02:26:02;;;;;;;1.45;1.25;;;19.10;66.70;;;;;;5052505;28;20215;-65
2021/09/24 02:28:27;;;;;;;1.05;1.05;;;19.00;66.60;;;;;;5053363;28;20196;-64
2021/09/24 02:30:53;;;;;;;1.58;1.42;;;19.00;66.60;;;;;;5052958;28;20198;-64
2021/09/24 02:33:18;;;;;;;2.40;1.60;;;19.00;66.60;;;;;;5052671;28;20689;-64
2021/09/24 02:35:44;;;;;;;1.58;1.27;;;19.00;66.60;;;;;;5052768;28;20183;-64
2021/09/24 02:38:09;;;;;;;1.67;1.20;;;19.00;66.60;;;;;;5052782;28;20634;-65
2021/09/24 02:40:35;;;;;;;1.90;1.33;;;19.00;66.70;;;;;;5052338;28;20660;-65
2021/09/24 02:43:00;;;;;;;2.33;1.35;;;19.00;66.60;;;;;;5052979;28;20171;-66
2021/09/24 02:45:26;;;;;;;2.03;1.33;;;19.00;66.60;;;;;;5053079;28;20179;-65
2021/09/24 02:47:51;;;;;;;2.33;1.20;;;19.00;66.60;;;;;;5052124;28;20206;-65
2021/09/24 02:50:17;;;;;;;2.78;1.40;;;19.00;66.60;;;;;;5052837;28;20206;-65
2021/09/24 02:52:42;;;;;;;1.85;1.30;;;19.00;66.60;;;;;;5052562;28;20630;-65
2021/09/24 02:55:08;;;;;;;2.25;1.30;;;19.00;66.60;;;;;;5052489;28;20171;-65
2021/09/24 02:57:33;;;;;;;3.13;1.50;;;19.00;66.60;;;;;;5052954;28;20179;-65
2021/09/24 02:59:59;;;;;;;3.05;1.30;;;19.00;66.60;;;;;;5051809;28;20538;-65
2021/09/24 03:02:25;;;;;;;1.55;1.10;;;19.00;66.70;;;;;;5052890;28;20178;-65
2021/09/24 03:04:50;;;;;;;2.35;1.55;;;19.00;66.70;;;;;;5052441;28;20179;-65
2021/09/24 03:07:16;;;;;;;1.85;1.45;;;19.00;66.70;;;;;;5051974;28;20214;-65
2021/09/24 03:09:41;;;;;;;2.67;1.58;;;19.00;66.70;;;;;;5052641;28;20179;-64
2021/09/24 03:12:07;;;;;;;2.58;1.48;;;19.00;66.70;;;;;;5052494;28;20209;-64
2021/09/24 03:14:32;;;;;;;2.90;1.50;;;19.00;66.70;;;;;;5051877;28;20227;-64
2021/09/24 03:16:58;;;;;;;4.72;1.58;;;19.00;66.60;;;;;;5048036;28;20174;-64
2021/09/24 03:19:24;;;;;;;2.13;1.45;;;19.00;66.70;;;;;;5032671;28;20182;-66
2021/09/24 03:21:49;;;;;;;1.52;1.27;;;19.00;66.70;;;;;;5049764;28;20179;-65
2021/09/24 03:24:15;;;;;;;1.88;1.20;;;19.00;66.70;;;;;;5052871;28;20512;-66
2021/09/24 03:26:40;;;;;;;1.60;1.30;;;19.00;66.70;;;;;;5052726;28;20219;-65
2021/09/24 03:29:07;;;;;;;2.22;1.38;;;19.00;66.70;;;;;;5051449;28;20539;-64
2021/09/24 03:31:32;;;;;;;2.78;1.80;;;19.00;66.60;;;;;;5034977;28;20595;-65
2021/09/24 03:33:58;;;;;;;2.13;1.63;;;19.00;66.70;;;;;;5052233;28;20662;-64
2021/09/24 03:36:24;;;;;;;2.72;1.40;;;19.00;66.70;;;;;;5051747;28;20194;-65
2021/09/24 03:38:49;;;;;;;1.85;1.23;;;19.00;66.70;;;;;;5052362;28;20171;-65
2021/09/24 03:41:14;;;;;;;2.15;1.20;;;19.00;66.70;;;;;;5052634;28;20190;-66
2021/09/24 03:43:40;;;;;;;2.55;1.40;;;19.00;66.70;;;;;;5051723;28;20176;-66
2021/09/24 03:46:06;;;;;;;1.50;1.40;;;19.00;66.70;;;;;;5052175;28;20615;-66
2021/09/24 03:48:31;;;;;;;2.47;1.30;;;19.00;66.70;;;;;;5056464;28;20221;-66
2021/09/24 03:50:56;;;;;;;1.65;1.33;;;19.00;66.70;;;;;;5055188;28;20179;-65
2021/09/24 03:53:22;;;;;;;1.77;1.33;;;19.00;66.70;;;;;;5056287;28;20626;-64
2021/09/24 03:55:52;;;;;;;1.63;1.25;;;19.00;66.70;;;;;;5056247;28;20209;-64
2021/09/24 03:58:18;;;;;;;4.43;1.33;;;19.00;66.70;;;;;;5055578;28;20185;-64
2021/09/24 04:00:43;;;;;;;2.92;1.77;;;19.00;66.70;;;;;;5056099;28;20262;-64
2021/09/24 04:03:09;;;;;;;1.70;1.30;;;19.00;66.70;;;;;;5055003;28;20523;-64
2021/09/24 04:05:34;;;;;;;3.60;1.77;;;18.90;66.60;;;;;;5056047;28;20179;-64
2021/09/24 04:08:00;;;;;;;1.65;1.20;;;19.00;66.70;;;;;;5055805;28;20222;-64
2021/09/24 04:10:25;;;;;;;1.85;1.50;;;19.00;66.70;;;;;;5055323;28;20167;-63
2021/09/24 04:12:51;;;;;;;1.73;1.38;;;19.00;66.70;;;;;;5055508;28;20230;-63
2021/09/24 04:15:16;;;;;;;3.33;1.40;;;19.00;66.70;;;;;;5056084;28;20174;-63
2021/09/24 04:17:42;;;;;;;2.03;1.20;;;18.90;66.70;;;;;;5044605;28;20188;-63
2021/09/24 04:20:08;;;;;;;1.58;1.40;;;18.90;66.60;;;;;;5021791;28;20625;-64
2021/09/24 04:22:33;;;;;;;1.98;1.38;;;19.00;66.70;;;;;;5055817;28;20179;-64
2021/09/24 04:24:59;;;;;;;1.95;1.20;;;18.90;66.60;;;;;;5054772;28;20240;-65
2021/09/24 04:27:24;;;;;;;1.60;1.50;;;18.90;66.60;;;;;;5055493;28;20735;-64
2021/09/24 04:29:50;;;;;;;1.70;1.27;;;18.90;66.70;;;;;;5055482;28;20179;-64
2021/09/24 04:32:15;;;;;;;1.35;1.15;;;18.90;66.70;;;;;;5054672;28;20181;-63
2021/09/24 04:34:41;;;;;;;1.27;1.10;;;18.90;66.70;;;;;;5055578;28;20214;-63
2021/09/24 04:37:06;;;;;;;1.48;1.38;;;18.90;66.70;;;;;;5054955;28;20317;-64
2021/09/24 04:39:32;;;;;;;1.48;1.38;;;18.90;66.70;;;;;;5054834;28;20257;-64
2021/09/24 04:41:57;;;;;;;2.08;1.20;;;18.90;66.70;;;;;;5055254;28;20175;-65
2021/09/24 04:44:23;;;;;;;1.75;1.20;;;18.90;66.70;;;;;;5055500;28;20171;-65
2021/09/24 04:46:48;;;;;;;1.30;1.20;;;18.90;66.70;;;;;;5054016;28;20238;-65
2021/09/24 04:49:14;;;;;;;1.77;1.20;;;18.90;66.70;;;;;;5055290;28;20693;-65
2021/09/24 04:51:39;;;;;;;2.20;1.33;;;18.90;66.70;;;;;;5055001;28;20252;-64
2021/09/24 04:54:05;;;;;;;1.40;1.30;;;18.90;66.70;;;;;;5053975;28;20692;-64
2021/09/24 04:56:30;;;;;;;1.88;1.50;;;18.90;66.70;;;;;;5054829;28;20179;-64
2021/09/24 04:58:56;;;;;;;2.65;1.70;;;18.90;66.70;;;;;;5054687;28;20229;-64
2021/09/24 05:01:21;;;;;;;1.75;1.65;;;18.90;66.70;;;;;;5054218;28;20228;-64
2021/09/24 05:03:47;;;;;;;1.95;1.35;;;18.90;66.70;;;;;;5054890;28;20178;-65
2021/09/24 05:06:13;;;;;;;1.50;1.40;;;18.90;66.60;;;;;;5054471;28;20217;-65
2021/09/24 05:08:38;;;;;;;2.33;1.75;;;18.90;66.70;;;;;;5054352;28;20562;-64
2021/09/24 05:11:04;;;;;;;2.10;1.95;;;18.90;66.70;;;;;;5054469;28;20184;-64
2021/09/24 05:13:29;;;;;;;1.45;1.35;;;18.90;66.70;;;;;;5053722;28;20261;-65
2021/09/24 05:15:55;;;;;;;1.90;1.70;;;18.90;66.70;;;;;;5054407;28;20171;-64
2021/09/24 05:18:20;;;;;;;2.90;1.70;;;18.90;66.70;;;;;;5039076;28;20176;-64
2021/09/24 05:20:46;;;;;;;3.08;1.80;;;18.90;66.80;;;;;;5043450;28;20214;-65
2021/09/24 05:23:11;;;;;;;3.70;1.98;;;18.90;66.70;;;;;;5054393;28;20179;-65
2021/09/24 05:25:37;;;;;;;1.73;1.63;;;18.90;66.70;;;;;;5054534;28;20182;-65
2021/09/24 05:28:02;;;;;;;2.28;2.00;;;18.90;66.80;;;;;;5053404;28;20206;-64
2021/09/24 05:30:28;;;;;;;3.28;1.70;;;18.90;66.80;;;;;;5054632;28;20182;-64
2021/09/24 05:32:55;;;;;;;5.45;2.30;;;18.90;66.80;;;;;;5054238;28;20317;-63
2021/09/24 05:35:21;;;;;;;2.55;2.08;;;18.90;66.80;;;;;;5053359;28;20186;-63
2021/09/24 05:37:46;;;;;;;3.45;2.13;;;18.90;66.90;;;;;;5054429;28;20171;-64
2021/09/24 05:40:13;;;;;;;2.60;1.85;;;18.90;66.80;;;;;;5053886;28;20533;-64
2021/09/24 05:42:38;;;;;;;2.97;1.85;;;18.90;66.80;;;;;;5053582;28;20225;-64
2021/09/24 05:45:04;;;;;;;2.92;2.30;;;18.90;66.90;;;;;;5053800;28;20179;-65
2021/09/24 05:47:30;;;;;;;3.22;2.38;;;18.90;66.90;;;;;;5053869;28;20633;-65
2021/09/24 05:49:55;;;;;;;3.38;2.47;;;18.90;66.80;;;;;;5053026;28;20262;-65
2021/09/24 05:52:21;;;;;;;2.75;2.47;;;18.90;66.90;;;;;;5054404;28;20175;-65
2021/09/24 05:54:46;;;;;;;4.35;2.95;;;18.90;66.80;;;;;;5054660;28;20182;-66
2021/09/24 05:57:12;;;;;;;3.25;2.65;;;18.90;66.80;;;;;;5052890;28;20167;-65
2021/09/24 05:59:37;;;;;;;5.10;2.78;;;18.90;66.80;;;;;;5054056;28;20177;-65
2021/09/24 06:02:03;;;;;;;5.10;3.08;;;18.90;66.80;;;;;;5053502;28;20537;-65
2021/09/24 06:04:29;;;;;;;4.65;2.70;;;18.90;67.00;;;;;;5052958;28;20182;-65
2021/09/24 06:06:54;;;;;;;3.40;2.72;;;18.90;67.10;;;;;;5053443;28;20260;-63
2021/09/24 06:09:20;;;;;;;4.97;2.90;;;18.90;67.10;;;;;;5053158;28;20179;-63
2021/09/24 06:11:46;;;;;;;6.75;2.92;;;19.00;67.10;;;;;;5053020;28;20182;-63
2021/09/24 06:14:11;;;;;;;5.65;3.35;;;19.00;67.00;;;;;;5053035;28;20280;-65
2021/09/24 06:16:37;;;;;;;9.98;3.53;;;19.00;67.00;;;;;;5052254;28;20551;-65
2021/09/24 06:19:03;;;;;;;9.75;3.50;;;19.00;67.30;;;;;;5032623;28;20207;-63
2021/09/24 06:21:29;;;;;;;5.90;2.97;;;19.00;67.30;;;;;;5048796;28;20649;-65
2021/09/24 06:23:54;;;;;;;6.90;3.25;;;19.00;68.10;;;;;;5052414;28;20242;-64
2021/09/24 06:26:20;;;;;;;7.28;3.50;;;19.00;67.20;;;;;;5053210;28;20211;-66
2021/09/24 06:28:45;;;;;;;6.95;3.40;;;19.00;67.30;;;;;;5053073;28;20537;-65
2021/09/24 06:31:11;;;;;;;5.30;3.70;;;19.00;67.30;;;;;;5052355;28;20167;-65
2021/09/24 06:33:36;;;;;;;10.90;3.83;;;19.00;67.60;;;;;;5053246;28;20175;-65
2021/09/24 06:36:02;;;;;;;9.98;3.67;;;19.00;67.70;;;;;;5053029;28;20241;-66
2021/09/24 06:38:28;;;;;;;7.97;3.90;;;19.00;67.40;;;;;;5052533;28;20171;-67
2021/09/24 06:40:53;;;;;;;9.98;3.75;;;18.90;67.40;;;;;;5053059;28;20172;-67
2021/09/24 06:43:19;;;;;;;8.13;3.97;;;19.00;67.60;;;;;;5053297;28;20179;-66
2021/09/24 06:45:44;;;;;;;8.15;4.07;;;18.90;67.60;;;;;;5052379;28;20217;-67
2021/09/24 06:48:10;;;;;;;9.95;4.38;;;18.90;67.60;;;;;;5052623;28;20176;-66
2021/09/24 06:50:36;;;;;;;6.50;3.30;;;18.90;67.70;;;;;;5052868;28;20266;-66
2021/09/24 06:53:02;;;;;;;10.63;4.78;;;19.00;67.70;;;;;;5051937;28;20612;-66
2021/09/24 06:55:27;;;;;;;5.45;4.35;;;18.90;67.70;;;;;;5052659;28;20183;-66
2021/09/24 06:57:53;;;;;;;9.02;4.18;;;18.90;67.70;;;;;;5052372;28;20265;-66
2021/09/24 07:00:19;;;;;;;8.18;4.22;;;18.90;67.70;;;;;;5052191;28;20373;-66
2021/09/24 07:02:44;;;;;;;9.10;4.00;;;18.90;67.70;;;;;;5052605;28;20201;-66
2021/09/24 07:05:10;;;;;;;7.00;4.03;;;18.90;67.70;;;;;;5052382;28;20182;-66
2021/09/24 07:07:36;;;;;;;7.32;4.10;;;18.90;67.70;;;;;;5034279;28;20215;-66
2021/09/24 07:10:01;;;;;;;8.40;4.70;;;19.00;67.80;;;;;;5052553;28;20544;-65
2021/09/24 07:12:27;;;;;;;8.77;4.65;;;18.90;67.70;;;;;;5052559;28;20214;-66
2021/09/24 07:14:52;;;;;;;5.47;3.90;;;18.90;67.80;;;;;;5051660;28;20320;-66
2021/09/24 07:17:18;;;;;;;6.88;4.80;;;18.90;67.80;;;;;;5045324;28;20175;-65
2021/09/24 07:19:43;;;;;;;6.55;4.38;;;18.90;67.80;;;;;;5033479;28;20684;-67
2021/09/24 07:22:09;;;;;;;8.80;4.70;;;18.90;67.80;;;;;;5053118;28;20580;-67
2021/09/24 07:24:35;;;;;;;8.00;4.75;;;18.90;67.80;;;;;;5056780;28;20225;-66
2021/09/24 07:27:00;;;;;;;10.35;4.68;;;18.90;67.80;;;;;;5056136;28;20211;-66
2021/09/24 07:29:26;;;;;;;5.78;4.43;;;18.90;67.90;;;;;;5056213;28;20228;-65
2021/09/24 07:31:51;;;;;;;6.57;4.15;;;18.90;67.80;;;;;;5056231;28;20266;-66
2021/09/24 07:34:17;;;;;;;7.05;4.85;;;18.90;67.80;;;;;;5055860;28;20638;-66
2021/09/24 07:36:42;;;;;;;6.72;4.63;;;18.90;67.80;;;;;;5056512;28;20621;-66
2021/09/24 07:39:08;;;;;;;8.43;4.43;;;18.90;67.80;;;;;;5056652;28;20221;-66
2021/09/24 07:41:33;;;;;;;7.32;4.60;;;18.90;67.90;;;;;;5055737;28;20209;-67
2021/09/24 07:44:00;;;;;;;6.03;4.20;;;18.90;67.90;;;;;;5056038;28;20191;-67
2021/09/24 07:46:25;;;;;;;7.03;5.38;;;18.90;67.90;;;;;;5056236;28;20211;-67
2021/09/24 07:48:51;;;;;;;8.00;4.53;;;18.90;67.90;;;;;;5055194;28;20712;-66
2021/09/24 07:51:17;;;;;;;7.05;4.43;;;18.90;67.90;;;;;;5056514;28;20175;-66
2021/09/24 07:53:42;;;;;;;9.02;4.53;;;18.90;67.90;;;;;;5056407;28;20625;-66
2021/09/24 07:56:08;;;;;;;6.80;5.20;;;18.90;67.80;;;;;;5055366;28;20175;-66
2021/09/24 07:58:36;;;;;;;5.63;4.50;;;18.90;67.90;;;;;;5056257;28;20186;-66
2021/09/24 08:01:01;;;;;;;7.13;4.57;;;18.90;67.90;;;;;;5055835;28;20179;-66
2021/09/24 08:03:26;;;;;;;6.22;4.75;;;18.90;67.80;;;;;;5055497;28;20178;-66
2021/09/24 08:05:52;;;;;;;6.55;4.90;;;18.90;67.80;;;;;;5055677;28;20205;-66
2021/09/24 08:08:17;;;;;;;7.10;5.10;;;18.90;67.80;;;;;;5055854;28;20538;-66
2021/09/24 08:10:43;;;;;;;6.05;4.85;;;18.90;67.90;;;;;;5055371;28;20167;-65
2021/09/24 08:13:09;;;;;;;4.93;4.45;;;18.90;67.90;;;;;;5055646;28;20230;-65
2021/09/24 08:15:35;;;;;;;6.18;4.38;;;18.90;67.90;;;;;;5055768;28;20174;-66
2021/09/24 08:18:01;;;;;;;6.70;4.63;;;18.90;67.90;;;;;;5041983;28;20250;-66
2021/09/24 08:20:26;;;;;;;7.40;5.22;;;18.90;67.90;;;;;;5042660;28;20634;-67
2021/09/24 08:22:52;;;;;;;5.32;4.72;;;18.90;67.90;;;;;;5037473;28;20179;-66
2021/09/24 08:25:19;;;;;;;7.20;5.10;;;19.00;68.00;;;;;;5055091;28;20205;-65
2021/09/24 08:27:46;;;;;;;7.25;5.10;;;18.90;68.00;;;;;;5055593;28;20680;-65
2021/09/24 08:30:13;;;;;;;9.25;5.03;;;18.90;67.90;;;;;;5055267;28;20181;-64
2021/09/24 08:32:38;;;;;;;8.23;5.70;;;19.00;68.00;;;;;;5054429;28;20182;-65
2021/09/24 08:35:05;;;;;;;6.63;5.07;;;18.90;67.90;;;;;;5055362;28;20167;-65
2021/09/24 08:37:31;;;;;;;6.63;4.93;;;19.00;67.90;;;;;;5054806;28;20179;-65
2021/09/24 08:39:56;;;;;;;6.75;4.75;;;19.00;67.90;;;;;;5054964;28;20175;-66
2021/09/24 08:42:22;;;;;;;7.22;5.30;;;19.00;68.20;;;;;;5055255;28;20546;-66
2021/09/24 08:44:49;;;;;;;7.43;4.75;;;19.00;68.20;;;;;;5054314;28;20178;-66
2021/09/24 08:47:14;;;;;;;6.80;5.43;;;19.00;68.10;;;;;;5054920;28;20567;-66
2021/09/24 08:49:40;;;;;;;7.32;4.93;;;18.90;68.10;;;;;;5037433;28;20171;-65
2021/09/24 08:52:05;;;;;;;5.88;4.57;;;19.00;68.20;;;;;;5054025;28;20178;-65
2021/09/24 08:54:31;;;;;;;5.80;5.03;;;18.90;68.30;;;;;;5054845;28;20172;-65
2021/09/24 08:56:56;;;;;;;7.32;5.82;;;19.00;68.30;;;;;;5054917;28;20175;-66
2021/09/24 08:59:22;;;;;;;5.68;4.97;;;19.00;68.30;;;;;;5054103;28;20194;-66
2021/09/24 09:02:08;;;;;;;5.97;5.05;;;19.00;68.10;;;;;;5054809;28;20175;-65
2021/09/24 09:04:46;;;;;;;7.60;5.55;;;19.00;68.10;;;;;;5054732;28;20197;-66
2021/09/24 09:07:13;;;;;;;6.55;5.00;;;19.00;68.10;;;;;;5054218;28;20214;-67
2021/09/24 09:09:40;;;;;;;7.28;5.15;;;18.90;68.10;;;;;;5054893;28;20543;-65
2021/09/24 09:12:25;;;;;;;7.97;5.40;;;19.00;68.10;;;;;;5054411;28;20179;-66
2021/09/24 09:15:01;;;;;;;6.75;5.20;;;19.00;68.10;;;;;;5053653;28;20241;-65
2021/09/24 09:17:37;;;;;;;6.32;4.60;;;19.00;68.10;;;;;;5046585;28;20175;-66
2021/09/24 09:20:11;;;;;;;6.30;4.78;;;19.00;68.10;;;;;;5036975;28;20171;-66
2021/09/24 09:22:37;;;;;;;7.95;6.05;;;19.00;68.10;;;;;;5054501;28;20174;-66
2021/09/24 09:25:03;;;;;;;6.75;4.93;;;19.00;68.00;;;;;;5054278;28;20182;-66
2021/09/24 09:27:28;;;;;;;5.28;4.70;;;19.00;67.90;;;;;;5053966;28;20238;-65
2021/09/24 09:29:58;;;;;;;7.45;5.80;;;19.00;67.90;;;;;;5054232;28;20588;-65
2021/09/24 09:32:24;;;;;;;6.80;5.28;;;19.00;67.90;;;;;;5054269;28;20725;-65
2021/09/24 09:34:50;;;;;;;7.45;5.03;;;19.10;67.90;;;;;;5053443;28;20262;-66
2021/09/24 09:37:19;;;;;;;6.63;5.70;;;19.10;67.90;;;;;;5054342;28;20248;-66
2021/09/24 09:39:45;;;;;;;8.65;5.90;;;19.10;67.80;;;;;;5054345;28;20171;-66
2021/09/24 09:42:10;;;;;;;6.55;5.82;;;19.20;67.70;;;;;;5053341;28;20178;-67
2021/09/24 09:44:38;;;;;;;6.75;5.47;;;19.20;67.50;;;;;;5053458;28;20679;-66
2021/09/24 09:47:03;;;;;;;6.78;5.60;;;19.20;67.70;;;;;;5053937;28;20215;-66
2021/09/24 09:49:29;;;;;;;7.47;5.97;;;19.20;67.80;;;;;;5053423;28;20179;-67
2021/09/24 09:52:08;;;;;;;6.60;5.50;;;19.20;67.80;;;;;;5053694;28;20186;-66
2021/09/24 09:54:33;;;;;;;7.68;5.50;;;19.20;67.70;;;;;;5053982;28;20214;-66
2021/09/24 09:57:12;;;;;;;8.82;5.93;;;19.20;67.70;;;;;;5053108;28;20195;-66
2021/09/24 09:59:37;;;;;;;7.25;6.20;;;19.30;67.60;;;;;;5053790;28;20207;-67
2021/09/24 10:02:19;;;;;;;8.93;6.35;;;19.30;67.60;;;;;;5052718;28;20206;-67
2021/09/24 10:04:52;;;;;;;8.15;6.75;;;19.30;67.50;;;;;;5053960;28;20257;-67
2021/09/24 10:07:22;;;;;;;8.45;6.80;;;19.30;67.60;;;;;;5053599;28;20601;-66
2021/09/24 10:09:49;;;;;;;8.95;5.60;;;19.30;67.50;;;;;;5052807;28;20183;-65
2021/09/24 10:12:21;;;;;;;8.02;6.05;;;19.30;67.50;;;;;;5053744;28;20254;-66
2021/09/24 10:14:51;;;;;;;9.35;6.75;;;19.40;67.60;;;;;;5053384;28;20225;-66
2021/09/24 10:17:17;;;;;;;6.75;6.10;;;19.40;67.80;;;;;;5046044;28;20172;-66
2021/09/24 10:19:43;;;;;;;7.65;6.40;;;19.40;67.50;;;;;;5034345;28;20259;-67
2021/09/24 10:22:09;;;;;;;7.85;6.32;;;19.50;67.50;;;;;;5053016;28;20609;-66
2021/09/24 10:24:35;;;;;;;9.00;6.07;;;19.40;67.30;;;;;;5052655;28;20237;-66
2021/09/24 10:27:05;;;;;;;6.07;5.38;;;19.50;67.40;;;;;;5052850;28;20661;-65
2021/09/24 10:29:31;;;;;;;10.38;7.10;;;19.50;67.40;;;;;;5035575;28;20189;-65
2021/09/24 10:32:12;;;;;;;8.65;6.15;;;19.50;67.40;;;;;;5034528;28;20289;-65
2021/09/24 10:35:16;;;;;;;7.10;6.40;;;19.50;67.30;;;;;;5037811;28;20179;-65
2021/09/24 10:37:45;;;;;;;7.50;6.03;;;19.50;67.30;;;;;;5049282;28;20277;-65
2021/09/24 10:40:20;;;;;;;7.57;6.50;;;19.50;67.20;;;;;;5035417;28;20179;-67
2021/09/24 10:42:47;;;;;;;8.07;6.97;;;19.60;67.30;;;;;;5053170;28;20170;-65
2021/09/24 10:45:21;;;;;;;7.43;6.70;;;19.60;67.70;;;;;;5051841;28;20175;-65
2021/09/24 10:47:53;;;;;;;8.18;7.07;;;19.60;67.80;;;;;;5050947;28;20214;-65
2021/09/24 10:50:31;;;;;;;9.57;6.53;;;19.60;67.90;;;;;;5052459;28;20167;-64
2021/09/24 10:53:18;;;;;;;9.10;6.68;;;19.60;68.00;;;;;;5050508;28;20171;-62
2021/09/24 10:55:53;;;;;;;8.52;6.90;;;19.80;67.60;;;;;;5050400;28;20174;-63
2021/09/24 10:58:28;;;;;;;7.75;6.55;;;19.80;67.40;;;;;;5048796;28;20167;-62
2021/09/24 11:00:56;;;;;;;7.80;6.53;;;19.80;67.70;;;;;;5049136;28;20171;-63
2021/09/24 11:03:23;;;;;;;8.93;6.18;;;19.80;67.70;;;;;;5052322;28;20650;-69
2021/09/24 11:06:08;;;;;;;10.65;6.57;;;19.90;67.20;;;;;;5051507;28;20198;-68
2021/09/24 11:08:37;;;;;;;9.15;6.57;;;19.80;67.20;;;;;;5051821;28;20183;-69
2021/09/24 11:11:22;;;;;;;10.60;6.85;;;19.90;67.40;;;;;;5052345;28;20206;-62
2021/09/24 11:13:54;;;;;;;9.88;6.78;;;19.80;67.70;;;;;;5031666;28;20706;-62
2021/09/24 11:16:27;;;;;;;8.43;6.50;;;19.90;67.80;;;;;;5032816;28;20192;-62
2021/09/24 11:18:59;;;;;;;9.48;6.72;;;19.90;67.80;;;;;;5051984;28;20171;-64
2021/09/24 11:21:25;;;;;;;9.48;7.13;;;19.80;67.80;;;;;;5051871;28;20202;-64
2021/09/24 11:23:52;;;;;;;7.45;6.55;;;19.90;67.80;;;;;;5052189;28;20175;-64
2021/09/24 11:26:20;;;;;;;6.95;5.82;;;19.90;67.80;;;;;;5051819;28;20207;-61
2021/09/24 11:28:46;;;;;;;7.03;5.88;;;19.90;67.70;;;;;;5052633;28;20251;-71
2021/09/24 11:31:12;;;;;;;8.52;6.47;;;20.00;67.60;;;;;;5052310;28;20206;-71
2021/09/24 11:33:46;;;;;;;8.57;6.82;;;20.00;67.50;;;;;;5051935;28;20175;-71
2021/09/24 11:36:12;;;;;;;9.40;5.80;;;20.00;67.40;;;;;;5052471;28;20220;-73
2021/09/24 11:38:38;;;;;;;8.10;6.50;;;20.00;67.40;;;;;;5052302;28;20183;-73
2021/09/24 11:41:03;;;;;;;6.75;6.05;;;20.00;67.40;;;;;;5051521;28;20186;-70
2021/09/24 11:43:33;;;;;;;8.02;6.00;;;20.00;67.30;;;;;;5052460;28;20187;-70
2021/09/24 11:46:29;;;;;;;7.88;6.40;;;20.00;67.20;;;;;;5052082;28;20171;-72
2021/09/24 11:48:55;;;;;;;9.50;6.25;;;20.00;67.40;;;;;;5038325;28;20183;-70
2021/09/24 11:51:24;;;;;;;6.43;5.82;;;20.00;67.40;;;;;;5052409;28;20652;-68
2021/09/24 11:53:55;;;;;;;7.55;5.82;;;20.10;67.30;;;;;;5052105;28;20179;-68
2021/09/24 11:56:41;;;;;;;7.35;5.90;;;20.00;67.40;;;;;;5051487;28;20194;-69
2021/09/24 11:59:08;;;;;;;8.25;5.60;;;20.10;67.40;;;;;;5036547;28;20171;-67
2021/09/24 12:01:34;;;;;;;7.20;5.88;;;20.00;67.40;;;;;;5051771;28;20183;-69
2021/09/24 12:04:00;;;;;;;7.50;6.10;;;20.00;67.40;;;;;;5052109;28;20178;-70
2021/09/24 12:06:29;;;;;;;8.07;6.10;;;20.00;67.40;;;;;;5052275;28;20217;-69
2021/09/24 12:09:04;;;;;;;8.70;6.28;;;20.00;67.30;;;;;;5053633;28;20175;-68
2021/09/24 12:11:42;;;;;;;6.47;5.78;;;20.00;67.40;;;;;;5039257;28;20183;-67
2021/09/24 12:14:08;;;;;;;6.30;5.57;;;20.00;67.20;;;;;;5055343;28;20233;-68
2021/09/24 12:16:37;;;;;;;7.15;5.65;;;20.10;67.20;;;;;;5054017;28;20186;-69
2021/09/24 12:19:09;;;;;;;8.60;6.03;;;20.00;67.10;;;;;;5035669;28;20245;-69
2021/09/24 12:21:37;;;;;;;6.97;6.35;;;20.10;67.10;;;;;;5051804;28;20183;-70
2021/09/24 12:24:06;;;;;;;7.00;6.30;;;20.10;67.10;;;;;;5054899;28;20171;-70
2021/09/24 12:26:33;;;;;;;6.25;5.65;;;20.10;67.00;;;;;;5055651;28;20211;-68
2021/09/24 12:29:03;;;;;;;8.38;5.72;;;20.10;66.80;;;;;;5055391;28;20179;-68
2021/09/24 12:31:36;;;;;;;6.50;5.90;;;20.10;66.90;;;;;;5054809;28;20211;-67
2021/09/24 12:34:02;;;;;;;6.03;5.45;;;20.00;67.00;;;;;;5055045;28;20543;-68
2021/09/24 12:36:27;;;;;;;6.63;5.93;;;20.00;67.10;;;;;;5055496;28;20171;-69
2021/09/24 12:38:54;;;;;;;7.55;6.35;;;20.00;67.20;;;;;;5054880;28;20171;-68
2021/09/24 12:41:20;;;;;;;7.20;6.32;;;20.00;67.20;;;;;;5037674;28;20183;-69
2021/09/24 12:43:46;;;;;;;6.72;6.05;;;20.00;67.20;;;;;;5054652;28;20167;-70